Time;durP1;ratioP1;P1;durP2;ratioP2;P2;SDS_P1;SDS_P2;PMS_P1;PMS_P2;Temp;Humidity;BMP_temperature;BMP_pressure;BME280_temperature;BME280_humidity;BME280_pressure;Samples;Min_cycle;Max_cycle;Signal;HPM_P1;HPM_P2
2022/03/17 00:02:19;;;;;;;54.30;38.40;;;;;;;6.19;52.97;101997.63;105694;1281;22849;-79
2022/03/17 00:04:46;;;;;;;55.20;37.40;;;;;;;6.19;52.96;102006.88;105630;1281;22571;-81
2022/03/17 00:07:14;;;;;;;55.70;39.00;;;;;;;6.17;52.85;102007.52;105582;1281;22559;-80
2022/03/17 00:09:42;;;;;;;57.40;37.10;;;;;;;6.16;52.82;102007.13;105591;1281;25216;-81
2022/03/17 00:12:09;;;;;;;52.20;36.90;;;;;;;6.15;52.80;102014.25;105349;1283;22572;-82
2022/03/17 00:14:37;;;;;;;51.70;36.40;;;;;;;6.14;52.70;102013.00;105628;1281;23192;-82
2022/03/17 00:17:04;;;;;;;57.80;37.10;;;;;;;6.11;52.78;102014.29;105814;1281;22839;-80
2022/03/17 00:19:31;;;;;;;54.80;37.40;;;;;;;6.08;52.81;102013.49;105292;1284;24319;-84
2022/03/17 00:21:59;;;;;;;57.30;37.60;;;;;;;6.06;52.92;102023.58;104886;1287;25562;-79
2022/03/17 00:24:26;;;;;;;53.50;36.40;;;;;;;6.07;52.95;102024.49;105289;1284;25399;-79
2022/03/17 00:26:53;;;;;;;53.30;37.70;;;;;;;6.08;52.91;102022.42;105217;1285;24350;-78
2022/03/17 00:29:20;;;;;;;56.50;38.20;;;;;;;6.08;52.84;102026.96;105559;1284;23088;-80
2022/03/17 00:31:47;;;;;;;54.60;37.00;;;;;;;6.05;52.89;102028.78;105304;1285;23121;-77
2022/03/17 00:34:14;;;;;;;53.70;36.20;;;;;;;6.03;52.98;102029.73;105179;1285;22637;-76
2022/03/17 00:36:41;;;;;;;50.10;35.70;;;;;;;6.03;52.88;102029.55;105156;1286;24242;-76
2022/03/17 00:39:08;;;;;;;52.00;38.10;;;;;;;5.99;52.80;102019.11;105074;1287;22614;-79
2022/03/17 00:41:36;;;;;;;46.10;34.60;;;;;;;6.00;52.86;102023.83;104952;1287;23372;-77
2022/03/17 00:44:03;;;;;;;50.50;36.50;;;;;;;5.97;52.91;102026.70;104789;1288;25267;-75
2022/03/17 00:46:31;;;;;;;53.90;36.10;;;;;;;5.90;52.96;102021.75;105007;1287;22699;-78
2022/03/17 00:48:58;;;;;;;51.90;36.60;;;;;;;5.86;53.02;102022.11;104816;1287;22550;-79
2022/03/17 00:51:25;;;;;;;50.40;36.40;;;;;;;5.82;53.11;102020.57;105154;1287;25607;-79
2022/03/17 00:53:51;;;;;;;50.30;36.30;;;;;;;5.80;53.22;102024.73;104835;1288;22585;-78
2022/03/17 00:56:18;;;;;;;52.60;37.30;;;;;;;5.81;53.26;102027.88;104933;1287;22873;-82
2022/03/17 00:58:47;;;;;;;52.30;37.90;;;;;;;5.76;53.13;102026.29;105568;1284;22760;-79
2022/03/17 01:01:16;;;;;;;51.40;36.50;;;;;;;5.68;53.11;102024.63;105654;1282;25462;-81
2022/03/17 01:03:46;;;;;;;49.70;34.90;;;;;;;5.67;53.31;102021.59;105834;1281;25264;-79
2022/03/17 01:06:14;;;;;;;50.00;35.70;;;;;;;5.67;53.24;102025.98;105816;1281;22766;-81
2022/03/17 01:08:41;;;;;;;47.90;34.70;;;;;;;5.63;53.38;102022.67;105727;1281;22551;-81
2022/03/17 01:11:08;;;;;;;55.00;36.50;;;;;;;5.63;53.48;102026.50;105756;1281;25364;-78
2022/03/17 01:13:35;;;;;;;48.90;36.50;;;;;;;5.61;53.46;102034.15;105501;1283;26633;-80
2022/03/17 01:16:03;;;;;;;50.30;36.90;;;;;;;5.59;53.54;102030.75;105624;1281;22556;-80
2022/03/17 01:18:30;;;;;;;51.50;36.00;;;;;;;5.58;53.54;102034.55;105668;1281;22578;-80
2022/03/17 01:20:57;;;;;;;48.90;35.50;;;;;;;5.54;53.45;102037.17;105109;1282;22698;-83
2022/03/17 01:23:25;;;;;;;49.90;35.20;;;;;;;5.51;53.62;102036.04;105354;1281;24226;-80
2022/03/17 01:25:52;;;;;;;45.70;34.50;;;;;;;5.46;53.58;102029.90;105466;1281;25392;-79
2022/03/17 01:28:19;;;;;;;48.90;36.40;;;;;;;5.46;53.75;102031.64;104608;1287;25310;-77
2022/03/17 01:30:47;;;;;;;50.90;37.00;;;;;;;5.43;53.74;102035.55;104540;1288;22768;-80
2022/03/17 01:33:14;;;;;;;58.80;38.30;;;;;;;5.42;53.90;102033.42;104641;1288;22810;-79
2022/03/17 01:35:40;;;;;;;55.30;39.00;;;;;;;5.42;53.91;102035.00;104624;1288;23957;-81
2022/03/17 01:38:07;;;;;;;52.60;37.20;;;;;;;5.39;53.97;102035.42;104371;1288;25550;-79
2022/03/17 01:40:35;;;;;;;50.50;36.20;;;;;;;5.36;54.05;102038.63;104458;1290;25326;-80
2022/03/17 01:43:03;;;;;;;50.60;37.00;;;;;;;5.33;54.02;102043.23;104770;1287;25333;-80
2022/03/17 01:45:30;;;;;;;52.40;36.20;;;;;;;5.29;54.08;102043.05;104771;1287;23597;-76
2022/03/17 01:47:57;;;;;;;53.80;36.00;;;;;;;5.25;54.14;102047.79;105085;1283;25382;-81
2022/03/17 01:50:25;;;;;;;60.20;38.70;;;;;;;5.16;54.23;102047.78;105326;1281;22570;-78
2022/03/17 01:52:52;;;;;;;49.00;36.60;;;;;;;5.11;54.47;102047.05;105318;1281;24287;-80
2022/03/17 01:55:19;;;;;;;53.00;37.50;;;;;;;5.04;54.60;102040.52;105505;1281;24506;-81
2022/03/17 01:57:48;;;;;;;51.60;36.30;;;;;;;5.04;54.74;102047.13;105472;1281;24298;-78
2022/03/17 02:00:21;;;;;;;53.10;36.90;;;;;;;5.03;54.74;102044.64;105542;1281;24319;-80
2022/03/17 02:02:50;;;;;;;53.70;37.90;;;;;;;4.99;55.00;102049.23;105303;1283;24704;-80
2022/03/17 02:05:19;;;;;;;53.60;38.80;;;;;;;4.97;54.96;102050.35;105367;1282;23350;-81
2022/03/17 02:07:51;;;;;;;59.00;40.20;;;;;;;4.90;55.06;102055.66;105456;1281;22535;-79
2022/03/17 02:10:20;;;;;;;57.80;39.40;;;;;;;4.80;55.17;102053.52;104908;1287;24373;-77
2022/03/17 02:15:34;;;;;;;64.10;43.00;;;;;;;4.63;55.43;102056.48;103961;1294;22582;-81
2022/03/17 02:18:06;;;;;;;58.70;41.80;;;;;;;4.57;55.66;102056.77;103839;1294;22849;-81
2022/03/17 02:20:34;;;;;;;61.50;43.20;;;;;;;4.56;55.87;102055.31;103985;1293;24375;-79
2022/03/17 02:25:57;;;;;;;58.20;41.40;;;;;;;4.48;56.11;102059.51;104115;1293;25283;-83
2022/03/17 02:28:26;;;;;;;58.30;41.50;;;;;;;4.49;56.23;102068.29;104442;1287;24312;-76
2022/03/17 02:30:54;;;;;;;64.70;44.90;;;;;;;4.50;56.17;102066.23;104743;1288;25334;-81
2022/03/17 02:33:21;;;;;;;60.30;45.80;;;;;;;4.51;56.20;102068.19;104998;1282;24203;-82
2022/03/17 02:35:49;;;;;;;59.70;44.80;;;;;;;4.49;56.23;102070.19;105419;1282;25674;-82
2022/03/17 02:38:17;;;;;;;59.20;44.10;;;;;;;4.44;56.19;102071.38;105447;1284;25617;-76
2022/03/17 02:40:48;;;;;;;63.00;44.60;;;;;;;4.43;56.27;102074.63;105331;1284;24452;-76
2022/03/17 02:43:16;;;;;;;67.20;46.20;;;;;;;4.38;56.30;102074.59;105355;1284;23873;-80
2022/03/17 02:45:45;;;;;;;63.00;44.50;;;;;;;4.29;56.41;102079.63;105327;1284;25364;-78
2022/03/17 02:48:13;;;;;;;66.80;43.70;;;;;;;4.27;56.58;102082.48;105072;1287;25571;-82
2022/03/17 02:50:40;;;;;;;62.40;42.20;;;;;;;4.25;56.60;102086.96;104769;1288;22547;-84
2022/03/17 02:53:10;;;;;;;62.10;42.20;;;;;;;4.21;56.63;102086.08;104928;1287;24266;-83
2022/03/17 02:55:42;;;;;;;58.10;40.50;;;;;;;4.20;56.79;102083.62;105209;1287;24278;-82
2022/03/17 02:58:10;;;;;;;57.20;40.70;;;;;;;4.17;56.76;102082.41;105142;1286;22557;-82
2022/03/17 03:00:38;;;;;;;55.00;38.90;;;;;;;4.12;56.79;102082.70;105318;1287;22873;-84
2022/03/17 03:03:06;;;;;;;56.60;39.60;;;;;;;4.06;56.95;102086.99;105200;1287;23990;-82
2022/03/17 03:05:34;;;;;;;53.50;38.10;;;;;;;3.96;57.00;102086.18;105152;1285;25870;-81
2022/03/17 03:08:02;;;;;;;53.50;37.30;;;;;;;3.93;57.24;102094.09;105070;1282;23944;-78
2022/03/17 03:10:30;;;;;;;51.00;35.70;;;;;;;3.87;57.19;102099.06;105573;1281;25331;-80
2022/03/17 03:12:58;;;;;;;51.50;36.50;;;;;;;3.77;57.38;102102.55;105270;1282;24377;-78
2022/03/17 03:15:26;;;;;;;50.00;35.50;;;;;;;3.69;57.60;102105.71;105069;1282;22538;-76
2022/03/17 03:17:54;;;;;;;51.40;36.10;;;;;;;3.63;57.70;102107.19;104622;1290;25489;-78
2022/03/17 03:20:23;;;;;;;49.50;34.80;;;;;;;3.54;57.81;102108.85;104406;1294;23564;-80
2022/03/17 03:22:49;;;;;;;50.60;35.10;;;;;;;3.51;58.14;102112.01;104280;1293;25494;-76
2022/03/17 03:25:16;;;;;;;51.20;35.20;;;;;;;3.44;58.09;102115.55;104142;1294;22652;-75
2022/03/17 03:27:44;;;;;;;45.80;32.50;;;;;;;3.40;58.36;102116.34;103788;1296;24066;-77
2022/03/17 03:30:13;;;;;;;48.30;31.50;;;;;;;3.42;58.51;102117.02;103745;1297;22582;-78
2022/03/17 03:32:47;;;;;;;46.30;32.70;;;;;;;3.43;58.58;102120.33;104114;1297;25386;-78
2022/03/17 03:38:01;;;;;;;46.20;31.30;;;;;;;3.36;58.67;102123.84;103801;1296;22563;-82
2022/03/17 03:40:28;;;;;;;43.20;31.80;;;;;;;3.41;58.82;102132.80;104083;1296;22562;-79
2022/03/17 03:42:55;;;;;;;44.50;31.90;;;;;;;3.41;58.68;102129.66;104137;1296;23995;-77
2022/03/17 03:45:22;;;;;;;46.30;31.00;;;;;;;3.35;58.71;102130.59;104319;1288;22762;-80
2022/03/17 03:47:49;;;;;;;46.50;32.20;;;;;;;3.30;58.83;102131.39;104170;1293;25368;-79
2022/03/17 03:50:16;;;;;;;39.70;29.60;;;;;;;3.24;58.81;102133.89;104194;1293;26743;-79
2022/03/17 03:52:43;;;;;;;43.00;30.20;;;;;;;3.21;59.07;102138.83;104182;1293;22723;-77
2022/03/17 03:55:11;;;;;;;45.80;31.30;;;;;;;3.20;59.01;102141.55;104097;1296;22519;-79
2022/03/17 03:57:38;;;;;;;42.30;29.50;;;;;;;3.14;59.16;102145.04;103979;1295;25280;-79
2022/03/17 04:00:52;;;;;;;43.90;31.20;;;;;;;3.14;59.42;102141.92;104739;1290;25441;-81
2022/03/17 04:02:55;;;;;;;44.20;31.00;;;;;;;3.18;59.40;102144.22;104956;1287;23033;-78
2022/03/17 04:05:44;;;;;;;41.80;29.70;;;;;;;3.19;59.43;102145.34;104511;1288;25342;-80
2022/03/17 04:08:10;;;;;;;44.30;31.00;;;;;;;3.14;59.21;102151.87;104671;1290;25285;-76
2022/03/17 04:10:37;;;;;;;46.80;31.60;;;;;;;3.08;59.38;102154.16;104790;1290;22583;-77
2022/03/17 04:13:04;;;;;;;44.20;30.30;;;;;;;3.05;59.46;102157.48;104826;1288;24011;-80
2022/03/17 04:15:30;;;;;;;41.30;29.60;;;;;;;3.04;59.51;102165.64;104822;1291;22669;-84
2022/03/17 04:17:57;;;;;;;46.20;32.30;;;;;;;3.02;59.58;102166.94;104925;1290;22616;-83
2022/03/17 04:20:24;;;;;;;42.60;30.10;;;;;;;2.94;59.45;102169.48;104777;1290;22582;-83
2022/03/17 04:22:51;;;;;;;42.40;29.40;;;;;;;2.84;59.73;102174.17;104800;1289;24306;-83
2022/03/17 04:25:18;;;;;;;42.10;30.10;;;;;;;2.80;59.92;102175.38;104564;1291;25279;-82
2022/03/17 04:27:45;;;;;;;42.50;29.70;;;;;;;2.72;59.99;102173.59;104689;1287;24253;-81
2022/03/17 04:30:12;;;;;;;50.70;29.20;;;;;;;2.70;60.31;102175.63;104682;1287;22554;-77
2022/03/17 04:32:39;;;;;;;42.10;28.90;;;;;;;2.75;60.34;102177.58;104788;1287;24357;-77
2022/03/17 04:35:07;;;;;;;43.10;29.10;;;;;;;2.84;60.50;102174.02;104584;1288;25383;-77
2022/03/17 04:37:34;;;;;;;43.40;29.70;;;;;;;2.91;60.45;102179.98;104852;1287;24320;-80
2022/03/17 04:40:02;;;;;;;43.50;29.70;;;;;;;2.96;60.33;102180.19;104692;1287;24361;-82
2022/03/17 04:42:29;;;;;;;42.20;27.70;;;;;;;3.02;60.41;102184.71;104901;1287;22559;-81
2022/03/17 04:44:56;;;;;;;40.60;28.60;;;;;;;3.06;60.22;102184.17;105190;1281;24268;-78
2022/03/17 04:47:23;;;;;;;44.70;31.50;;;;;;;3.05;60.18;102187.45;105293;1282;22548;-79
2022/03/17 04:49:50;;;;;;;42.50;28.60;;;;;;;3.03;60.13;102195.36;105857;1279;22595;-76
2022/03/17 04:55:04;;;;;;;43.00;29.30;;;;;;;2.93;60.08;102200.41;105531;1281;24110;-78
2022/03/17 04:57:31;;;;;;;41.90;28.90;;;;;;;2.86;60.13;102202.16;106308;1279;24320;-86
2022/03/17 04:59:58;;;;;;;46.40;29.50;;;;;;;2.87;60.40;102205.34;108300;1269;22544;-89
2022/03/17 05:02:25;;;;;;;44.00;29.20;;;;;;;2.91;60.48;102208.64;106907;1280;22598;-91
2022/03/17 05:04:52;;;;;;;52.90;31.30;;;;;;;2.95;60.45;102208.86;107080;1278;22585;-91
2022/03/17 05:07:28;;;;;;;39.70;27.50;;;;;;;2.98;60.35;102213.02;108113;1271;22564;-84
2022/03/17 05:09:55;;;;;;;40.60;28.60;;;;;;;3.01;60.35;102216.13;106767;1272;22605;-87
2022/03/17 05:12:22;;;;;;;43.80;29.00;;;;;;;3.03;60.22;102213.44;105344;1279;24306;-85
2022/03/17 05:14:49;;;;;;;39.60;27.10;;;;;;;3.02;60.18;102212.73;107538;1272;24302;-85
2022/03/17 05:17:16;;;;;;;39.90;27.40;;;;;;;3.03;60.33;102209.26;105364;1282;22555;-86
2022/03/17 05:19:43;;;;;;;41.60;28.80;;;;;;;3.03;60.22;102205.42;105665;1281;22646;-88
2022/03/17 05:22:10;;;;;;;42.10;28.60;;;;;;;3.00;60.23;102207.06;105853;1279;22493;-83
2022/03/17 05:24:37;;;;;;;40.60;28.70;;;;;;;3.02;60.35;102205.58;105714;1281;438615;-88
2022/03/17 05:27:04;;;;;;;37.90;26.30;;;;;;;3.05;60.39;102210.27;105267;1287;26491;-86
2022/03/17 05:29:31;;;;;;;37.20;27.30;;;;;;;3.07;60.26;102212.81;105391;1287;22606;-83
2022/03/17 05:31:57;;;;;;;35.90;26.30;;;;;;;3.09;60.20;102221.25;105394;1287;24275;-90
2022/03/17 05:34:29;;;;;;;41.10;28.60;;;;;;;3.09;60.29;102222.45;105455;1288;24230;-90
2022/03/17 05:36:56;;;;;;;42.70;25.80;;;;;;;3.11;60.17;102227.40;105264;1288;22820;-87
2022/03/17 05:39:23;;;;;;;38.70;28.60;;;;;;;3.10;60.25;102231.20;104797;1287;24100;-87
2022/03/17 05:41:50;;;;;;;42.50;27.50;;;;;;;3.12;60.31;102233.42;104738;1288;23254;-86
2022/03/17 05:44:17;;;;;;;41.10;29.30;;;;;;;3.15;60.39;102236.54;105140;1287;22503;-84
2022/03/17 05:46:44;;;;;;;38.30;29.50;;;;;;;3.17;60.33;102243.22;105466;1279;26511;-89
2022/03/17 05:49:12;;;;;;;39.30;27.30;;;;;;;3.13;60.45;102242.71;105575;1281;22569;-88
2022/03/17 05:51:39;;;;;;;35.90;26.00;;;;;;;3.11;60.50;102245.87;105729;1279;24223;-88
2022/03/17 05:54:06;;;;;;;40.60;29.80;;;;;;;3.07;60.51;102248.45;105667;1281;22743;-88
2022/03/17 05:56:34;;;;;;;40.50;27.50;;;;;;;3.07;60.56;102251.13;105721;1279;22654;-86
2022/03/17 05:59:02;;;;;;;44.30;28.80;;;;;;;3.08;60.63;102253.41;105656;1281;24309;-88
2022/03/17 06:01:29;;;;;;;40.00;28.50;;;;;;;3.13;60.53;102260.77;105691;1280;25255;-88
2022/03/17 06:03:57;;;;;;;35.00;26.00;;;;;;;3.07;60.42;102256.14;105984;1281;23863;-86
2022/03/17 06:06:24;;;;;;;38.80;29.00;;;;;;;3.08;60.49;102261.94;106166;1279;22801;-87
2022/03/17 06:08:51;;;;;;;42.20;29.00;;;;;;;3.09;60.55;102261.48;107258;1279;23957;-89
2022/03/17 06:11:19;;;;;;;44.90;28.70;;;;;;;3.15;60.61;102263.16;106369;1281;23226;-83
2022/03/17 06:13:46;;;;;;;42.90;29.70;;;;;;;3.20;60.65;102263.59;105941;1281;25489;-83
2022/03/17 06:16:13;;;;;;;43.40;28.50;;;;;;;3.22;60.53;102263.70;105511;1281;22544;-75
2022/03/17 06:18:41;;;;;;;41.80;29.40;;;;;;;3.27;60.47;102267.08;105406;1281;22560;-78
2022/03/17 06:21:08;;;;;;;42.10;28.90;;;;;;;3.32;60.42;102263.12;105369;1282;26521;-77
2022/03/17 06:23:35;;;;;;;41.60;28.80;;;;;;;3.37;60.51;102259.73;105743;1281;22588;-78
2022/03/17 06:26:02;;;;;;;47.40;30.00;;;;;;;3.41;60.29;102262.92;105495;1281;24401;-77
2022/03/17 06:28:29;;;;;;;43.00;30.50;;;;;;;3.47;60.27;102263.20;105794;1281;26604;-78
2022/03/17 06:30:56;;;;;;;42.80;29.60;;;;;;;3.53;60.42;102259.64;105439;1283;25252;-79
2022/03/17 06:33:23;;;;;;;42.00;27.10;;;;;;;3.59;60.27;102262.56;105722;1281;26731;-78
2022/03/17 06:35:50;;;;;;;43.60;29.30;;;;;;;3.66;60.35;102267.42;105736;1281;22576;-81
2022/03/17 06:38:17;;;;;;;39.30;28.80;;;;;;;3.72;60.15;102267.92;105276;1283;22544;-83
2022/03/17 06:40:44;;;;;;;43.60;29.90;;;;;;;3.77;60.10;102271.63;105977;1281;22566;-88
2022/03/17 06:43:14;;;;;;;43.00;29.30;;;;;;;3.84;59.98;102271.61;105494;1281;24346;-82
2022/03/17 06:45:41;;;;;;;45.10;29.60;;;;;;;3.89;60.02;102281.11;105370;1282;22557;-83
2022/03/17 06:48:08;;;;;;;40.40;28.60;;;;;;;3.95;59.80;102278.11;105949;1281;25315;-82
2022/03/17 06:50:35;;;;;;;44.80;29.20;;;;;;;4.01;59.73;102279.77;106533;1281;23994;-80
2022/03/17 06:53:03;;;;;;;39.40;28.30;;;;;;;4.06;59.43;102280.52;106059;1281;22502;-83
2022/03/17 06:55:33;;;;;;;45.20;29.90;;;;;;;4.07;59.57;102281.61;105692;1281;23101;-84
2022/03/17 06:58:01;;;;;;;44.90;32.20;;;;;;;4.14;59.42;102287.69;105522;1281;22522;-83
2022/03/17 07:00:28;;;;;;;38.50;28.00;;;;;;;4.18;59.22;102287.20;105484;1282;25678;-81
2022/03/17 07:02:55;;;;;;;45.60;30.80;;;;;;;4.22;59.26;102293.83;105973;1281;25435;-79
2022/03/17 07:05:23;;;;;;;40.40;29.20;;;;;;;4.28;59.05;102296.55;105617;1281;24353;-80
2022/03/17 07:07:49;;;;;;;40.10;27.80;;;;;;;4.33;59.05;102299.58;105538;1281;24311;-80
2022/03/17 07:10:16;;;;;;;44.90;29.90;;;;;;;4.38;58.86;102302.45;105516;1281;22701;-83
2022/03/17 07:12:44;;;;;;;39.40;28.30;;;;;;;4.46;58.88;102306.33;105208;1284;23404;-84
2022/03/17 07:15:12;;;;;;;42.70;29.40;;;;;;;4.55;58.70;102301.33;106025;1281;25966;-83
2022/03/17 07:17:41;;;;;;;45.30;29.90;;;;;;;4.62;58.41;102302.14;106769;1281;22690;-82
2022/03/17 07:20:20;;;;;;;40.70;27.90;;;;;;;4.69;58.42;102306.80;105147;1287;22541;-84
2022/03/17 07:22:49;;;;;;;43.70;27.80;;;;;;;4.72;58.10;102302.05;104882;1293;22515;-83
2022/03/17 07:25:17;;;;;;;46.00;29.40;;;;;;;4.71;57.98;102314.06;104800;1293;22693;-82
2022/03/17 07:27:46;;;;;;;38.30;27.00;;;;;;;4.77;58.04;102312.92;104408;1294;23286;-85
2022/03/17 07:30:19;;;;;;;50.20;30.60;;;;;;;4.83;57.83;102310.23;104232;1293;25346;-84
2022/03/17 07:32:48;;;;;;;42.10;28.80;;;;;;;4.80;57.66;102314.30;104164;1296;24287;-83
2022/03/17 07:35:15;;;;;;;44.60;29.90;;;;;;;4.80;57.64;102319.39;104228;1294;25579;-82
2022/03/17 07:37:42;;;;;;;42.50;28.30;;;;;;;4.83;57.75;102318.64;104052;1288;25273;-85
2022/03/17 07:40:11;;;;;;;39.60;29.30;;;;;;;4.93;57.62;102322.58;104602;1286;22665;-82
2022/03/17 07:42:38;;;;;;;42.30;28.00;;;;;;;5.03;57.41;102325.28;105815;1279;22562;-93
2022/03/17 07:45:23;;;;;;;45.20;30.10;;;;;;;5.01;57.07;102324.67;106151;1279;25253;-83
2022/03/17 07:48:25;;;;;;;41.80;28.80;;;;;;;5.08;57.27;102329.52;104971;1287;22870;-84
2022/03/17 07:50:57;;;;;;;48.40;29.90;;;;;;;5.17;57.25;102334.84;105353;1279;22550;-83
2022/03/17 07:53:24;;;;;;;59.10;29.50;;;;;;;5.28;57.08;102332.13;105495;1281;22563;-84
2022/03/17 07:55:55;;;;;;;42.70;29.50;;;;;;;5.37;57.02;102331.83;105525;1281;24361;-83
2022/03/17 07:58:24;;;;;;;44.00;29.50;;;;;;;5.45;56.79;102333.94;105438;1281;22691;-81
2022/03/17 08:00:52;;;;;;;47.40;30.20;;;;;;;5.54;56.75;102336.08;105675;1281;22727;-83
2022/03/17 08:03:21;;;;;;;41.80;28.60;;;;;;;5.66;56.52;102337.09;106036;1281;25252;-83
2022/03/17 08:05:49;;;;;;;44.30;29.70;;;;;;;5.75;56.25;102337.29;106336;1281;22668;-83
2022/03/17 08:08:18;;;;;;;43.40;28.10;;;;;;;5.83;55.96;102338.31;105758;1282;22650;-82
2022/03/17 08:10:46;;;;;;;51.80;31.30;;;;;;;5.88;55.94;102334.84;105612;1281;22636;-82
2022/03/17 08:13:13;;;;;;;44.00;29.50;;;;;;;5.97;55.76;102336.94;105756;1279;25485;-81
2022/03/17 08:15:41;;;;;;;43.20;29.70;;;;;;;6.04;55.57;102344.79;105678;1279;24237;-82
2022/03/17 08:18:08;;;;;;;40.90;26.90;;;;;;;6.08;55.11;102344.60;105319;1279;25451;-81
2022/03/17 08:20:40;;;;;;;40.50;27.70;;;;;;;6.13;55.06;102347.77;105280;1279;22670;-85
2022/03/17 08:23:08;;;;;;;44.60;28.00;;;;;;;6.19;55.13;102353.48;105436;1282;22702;-81
2022/03/17 08:25:36;;;;;;;46.10;29.10;;;;;;;6.27;54.76;102353.26;105620;1279;22581;-81
2022/03/17 08:28:03;;;;;;;41.20;27.40;;;;;;;6.32;54.48;102354.66;105385;1281;25358;-81
2022/03/17 08:30:32;;;;;;;43.90;29.10;;;;;;;6.39;54.30;102356.37;105629;1279;23253;-80
2022/03/17 08:32:59;;;;;;;38.00;27.60;;;;;;;6.47;54.15;102356.66;105746;1279;24233;-82
2022/03/17 08:35:27;;;;;;;44.10;29.80;;;;;;;6.54;54.06;102356.21;105566;1280;22543;-82
2022/03/17 08:37:57;;;;;;;44.30;29.60;;;;;;;6.61;53.94;102356.50;105310;1280;23199;-83
2022/03/17 08:40:25;;;;;;;45.40;29.10;;;;;;;6.64;53.49;102359.77;105695;1281;24371;-82
2022/03/17 08:42:52;;;;;;;40.20;29.00;;;;;;;6.75;53.81;102360.35;105681;1279;23284;-83
2022/03/17 08:50:51;;;;;;;45.70;27.90;;;;;;;7.26;53.04;102358.02;105561;1281;25320;-83
2022/03/17 08:53:19;;;;;;;43.10;28.40;;;;;;;7.40;52.94;102351.52;105750;1279;24669;-86
2022/03/17 08:55:46;;;;;;;42.60;29.30;;;;;;;7.59;52.61;102352.88;105974;1280;22719;-83
2022/03/17 08:58:16;;;;;;;37.30;26.10;;;;;;;7.76;52.32;102359.77;105645;1281;25346;-83
2022/03/17 09:00:44;;;;;;;42.10;28.40;;;;;;;7.95;51.99;102359.52;105216;1281;24319;-83
2022/03/17 09:03:12;;;;;;;38.70;27.90;;;;;;;8.14;51.52;102360.31;105530;1281;25310;-83
2022/03/17 09:05:41;;;;;;;41.30;26.00;;;;;;;8.29;51.13;102360.78;105507;1281;22566;-82
2022/03/17 09:08:09;;;;;;;38.90;26.60;;;;;;;8.43;50.54;102357.89;104894;1288;22647;-83
2022/03/17 09:10:38;;;;;;;35.20;26.20;;;;;;;8.58;50.24;102360.68;105033;1285;25278;-82
2022/03/17 09:13:09;;;;;;;40.60;26.50;;;;;;;8.73;49.98;102357.26;104965;1285;22790;-85
2022/03/17 09:15:39;;;;;;;39.00;27.20;;;;;;;8.82;49.37;102354.70;104855;1285;24275;-85
2022/03/17 09:18:08;;;;;;;35.80;26.20;;;;;;;8.96;49.20;102351.61;104876;1285;24464;-82
2022/03/17 09:20:37;;;;;;;35.20;26.70;;;;;;;9.11;48.80;102356.95;104879;1285;22894;-83
2022/03/17 09:23:04;;;;;;;37.50;25.50;;;;;;;9.22;48.71;102357.61;104836;1285;22568;-82
2022/03/17 09:25:34;;;;;;;32.20;24.80;;;;;;;9.42;48.23;102354.46;104980;1283;24793;-85
2022/03/17 09:28:03;;;;;;;32.90;23.00;;;;;;;9.61;47.84;102348.64;105534;1279;22560;-84
2022/03/17 09:30:31;;;;;;;35.80;24.30;;;;;;;9.79;47.47;102353.16;105901;1279;22537;-81
2022/03/17 09:33:01;;;;;;;32.70;25.00;;;;;;;9.98;47.13;102355.91;105808;1279;22699;-85
2022/03/17 09:35:29;;;;;;;37.10;26.20;;;;;;;10.18;46.82;102351.48;105936;1279;25252;-83
2022/03/17 09:37:56;;;;;;;33.90;24.50;;;;;;;10.34;46.41;102354.31;105899;1279;22771;-81
2022/03/17 09:40:23;;;;;;;31.40;25.00;;;;;;;10.53;46.08;102355.82;106067;1280;25473;-82
2022/03/17 09:43:18;;;;;;;37.80;25.40;;;;;;;10.72;45.89;102357.83;105966;1281;22705;-82
2022/03/17 09:45:41;;;;;;;34.80;23.70;;;;;;;10.88;45.11;102355.17;105369;1281;22544;-75
2022/03/17 09:48:14;;;;;;;31.30;24.30;;;;;;;10.96;44.94;102350.74;105349;1281;22859;-75
2022/03/17 09:50:42;;;;;;;34.80;24.00;;;;;;;11.13;44.48;102351.45;105642;1281;22600;-73
2022/03/17 09:53:09;;;;;;;42.70;24.70;;;;;;;11.32;44.28;102355.00;105578;1280;25431;-75
2022/03/17 09:55:38;;;;;;;37.80;24.20;;;;;;;11.51;43.89;102349.52;105561;1281;22560;-74
2022/03/17 09:58:06;;;;;;;39.10;22.60;;;;;;;11.63;43.34;102345.48;105816;1281;22872;-88
2022/03/17 10:00:49;;;;;;;29.20;21.10;;;;;;;11.76;43.12;102348.55;105454;1281;22715;-77
2022/03/17 10:04:02;;;;;;;31.80;23.10;;;;;;;11.88;43.17;102352.82;102443;1312;558256;-84
2022/03/17 10:06:29;;;;;;;39.20;24.20;;;;;;;12.02;42.54;102347.05;104887;1287;22687;-76
2022/03/17 10:08:57;;;;;;;37.60;23.40;;;;;;;12.16;42.51;102340.39;104549;1290;22587;-77
2022/03/17 10:11:26;;;;;;;30.10;22.90;;;;;;;12.37;42.00;102343.55;104819;1289;22608;-76
2022/03/17 10:13:54;;;;;;;31.90;21.80;;;;;;;12.47;41.40;102345.30;104874;1287;25283;-76
2022/03/17 10:16:21;;;;;;;31.40;21.40;;;;;;;12.60;41.33;102346.54;104667;1287;224450;-78
2022/03/17 10:19:08;;;;;;;31.80;21.20;;;;;;;12.69;40.58;102344.88;104830;1286;22714;-76
2022/03/17 10:21:35;;;;;;;;;;;;;;;12.64;40.25;102343.75;104961;1286;23958;-75
2022/03/17 10:24:02;;;;;;;;;;;;;;;12.63;40.42;102343.04;105102;1286;22863;-77
2022/03/17 10:26:46;;;;;;;25.80;19.90;;;;;;;12.64;40.03;102335.80;105118;1286;22720;-75
2022/03/17 10:29:17;;;;;;;31.50;20.20;;;;;;;12.59;40.09;102342.09;105106;1286;25280;-74
2022/03/17 10:31:50;;;;;;;30.50;20.10;;;;;;;12.74;40.18;102342.29;105287;1286;24356;-75
2022/03/17 10:34:18;;;;;;;29.60;20.90;;;;;;;12.98;40.07;102345.59;105250;1284;22563;-75
2022/03/17 10:36:45;;;;;;;26.90;20.30;;;;;;;13.08;39.36;102340.42;105635;1284;22553;-80
2022/03/17 10:39:12;;;;;;;26.00;20.40;;;;;;;13.16;39.00;102347.75;105735;1284;24271;-87
2022/03/17 10:41:41;;;;;;;27.60;20.10;;;;;;;13.20;38.87;102339.13;105823;1284;24236;-86
2022/03/17 10:44:12;;;;;;;26.90;19.50;;;;;;;13.39;39.00;102336.15;106107;1278;22624;-83
2022/03/17 10:46:53;;;;;;;25.70;17.30;;;;;;;13.54;38.27;102330.83;106178;1278;25264;-84
2022/03/17 10:49:19;;;;;;;23.60;17.60;;;;;;;13.64;37.92;102333.95;106262;1278;22567;-85
2022/03/17 10:51:45;;;;;;;22.50;17.80;;;;;;;13.72;37.66;102332.60;106352;1278;22565;-86
2022/03/17 10:54:20;;;;;;;26.90;18.20;;;;;;;13.67;37.41;102333.95;106602;1278;24234;-85
2022/03/17 10:56:57;;;;;;;26.00;18.10;;;;;;;13.42;37.46;102331.93;106938;1278;24323;-85
2022/03/17 10:59:55;;;;;;;22.30;17.30;;;;;;;13.22;37.37;102332.78;106664;1278;22570;-84
2022/03/17 11:02:24;;;;;;;21.60;17.10;;;;;;;13.21;37.45;102331.36;106380;1277;22577;-84
2022/03/17 11:04:52;;;;;;;21.90;16.20;;;;;;;13.13;37.30;102331.98;107037;1277;23924;-85
2022/03/17 11:07:21;;;;;;;19.20;15.50;;;;;;;13.19;37.34;102331.86;106740;1278;22553;-84
2022/03/17 11:09:47;;;;;;;22.70;16.70;;;;;;;13.14;37.18;102327.05;105874;1285;22562;-86
2022/03/17 11:12:20;;;;;;;25.40;17.00;;;;;;;12.91;37.22;102324.30;105616;1283;25414;-86
2022/03/17 11:14:55;;;;;;;22.80;15.40;;;;;;;12.92;37.24;102322.52;105617;1283;22901;-84
2022/03/17 11:17:37;;;;;;;22.90;16.60;;;;;;;13.09;37.08;102320.96;105941;1283;22546;-84
2022/03/17 11:20:07;;;;;;;25.90;16.30;;;;;;;13.28;37.00;102320.64;106298;1283;25255;-82
2022/03/17 11:22:34;;;;;;;21.20;16.20;;;;;;;13.52;36.54;102312.94;106368;1283;22504;-84
2022/03/17 11:25:25;;;;;;;22.40;16.10;;;;;;;13.73;36.55;102317.73;106370;1283;26642;-84
2022/03/17 11:27:59;;;;;;;22.20;17.10;;;;;;;13.99;36.30;102310.33;106398;1278;24148;-86
2022/03/17 11:30:39;;;;;;;20.50;16.70;;;;;;;14.13;35.97;102312.02;106253;1277;25264;-85
2022/03/17 11:33:27;;;;;;;18.20;14.80;;;;;;;14.25;35.67;102309.25;106179;1278;24319;-86
2022/03/17 11:35:55;;;;;;;20.30;14.80;;;;;;;14.59;35.52;102311.92;106975;1278;23026;-86